createdAt,value
2022-10-21T00:01:12.090Z,9.03
2022-10-21T00:03:41.536Z,9.83
2022-10-21T00:06:10.975Z,9.67
2022-10-21T00:08:40.578Z,9.50
2022-10-21T00:11:11.577Z,8.97
2022-10-21T00:13:40.624Z,10.53
2022-10-21T00:16:11.784Z,9.97
2022-10-21T00:18:42.524Z,10.23
2022-10-21T00:21:13.431Z,10.47
2022-10-21T00:23:42.498Z,9.53
2022-10-21T00:26:13.161Z,10.77
2022-10-21T00:28:41.914Z,9.60
2022-10-21T00:31:11.750Z,10.30
2022-10-21T00:33:40.423Z,10.50
2022-10-21T00:36:14.842Z,10.53
2022-10-21T00:38:44.874Z,10.50
2022-10-21T00:41:15.612Z,11.63
2022-10-21T00:43:59.085Z,9.07
2022-10-21T00:46:34.423Z,10.63
2022-10-21T00:49:06.746Z,10.50
2022-10-21T00:51:35.088Z,10.73
2022-10-21T00:54:04.027Z,10.80
2022-10-21T00:56:36.018Z,10.97
2022-10-21T00:59:06.464Z,11.17
2022-10-21T01:01:34.926Z,11.20
2022-10-21T01:04:04.039Z,10.70
2022-10-21T01:06:33.074Z,9.80
2022-10-21T01:09:02.789Z,10.53
2022-10-21T01:11:36.179Z,10.53
2022-10-21T01:14:29.042Z,9.70
2022-10-21T01:17:20.627Z,9.37
2022-10-21T01:20:21.667Z,10.93
2022-10-21T01:23:08.315Z,11.00
2022-10-21T01:25:59.161Z,10.07
2022-10-21T01:28:44.736Z,9.97
2022-10-21T01:31:19.655Z,10.23
2022-10-21T01:33:54.384Z,10.87
2022-10-21T01:36:31.760Z,9.70
2022-10-21T01:39:08.480Z,11.00
2022-10-21T01:41:41.454Z,10.87
2022-10-21T01:44:16.959Z,12.30
2022-10-21T01:46:51.282Z,11.27
2022-10-21T01:49:24.747Z,10.47
2022-10-21T01:51:54.581Z,11.53
2022-10-21T01:54:27.004Z,11.00
2022-10-21T01:56:57.284Z,10.70
2022-10-21T01:59:28.218Z,11.57
2022-10-21T02:01:59.626Z,11.00
2022-10-21T02:04:29.955Z,10.70
2022-10-21T02:06:58.396Z,10.87
2022-10-21T02:09:26.778Z,11.03
2022-10-21T02:11:59.343Z,12.40
2022-10-21T02:14:33.240Z,11.40
2022-10-21T02:17:03.562Z,11.53
2022-10-21T02:19:32.683Z,11.77
2022-10-21T02:22:04.771Z,11.53
2022-10-21T02:24:39.267Z,11.33
2022-10-21T02:27:07.730Z,11.77
2022-10-21T02:29:39.162Z,12.03
2022-10-21T02:32:26.900Z,12.00
2022-10-21T02:35:07.630Z,11.13
2022-10-21T02:37:44.366Z,11.90
2022-10-21T02:40:18.636Z,13.07
2022-10-21T02:42:51.623Z,12.93
2022-10-21T02:45:20.180Z,12.83
2022-10-21T02:47:51.295Z,12.00
2022-10-21T02:50:19.802Z,11.97
2022-10-21T02:52:48.419Z,11.20
2022-10-21T02:55:16.787Z,12.87
2022-10-21T02:57:45.203Z,12.23
2022-10-21T03:00:14.784Z,13.27
2022-10-21T03:02:43.313Z,13.33
2022-10-21T03:05:13.218Z,12.37
2022-10-21T03:07:42.309Z,13.03
2022-10-21T03:10:11.047Z,12.90
2022-10-21T03:12:39.617Z,12.67
2022-10-21T03:15:09.339Z,13.10
2022-10-21T03:17:38.238Z,14.50
2022-10-21T03:20:07.356Z,13.20
2022-10-21T03:22:37.494Z,14.33
2022-10-21T03:25:06.831Z,13.30
2022-10-21T03:27:35.466Z,14.10
2022-10-21T03:30:04.411Z,14.83
2022-10-21T03:32:32.798Z,14.47
2022-10-21T03:35:01.295Z,13.33
2022-10-21T03:37:29.911Z,13.67
2022-10-21T03:39:59.567Z,13.57
2022-10-21T03:42:29.095Z,13.43
2022-10-21T03:44:59.035Z,12.70
2022-10-21T03:47:27.610Z,13.20
2022-10-21T03:49:55.740Z,13.20
2022-10-21T03:52:24.100Z,12.73
2022-10-21T03:54:52.104Z,13.97
2022-10-21T03:57:21.542Z,12.67
2022-10-21T03:59:49.538Z,13.63
2022-10-21T04:02:17.655Z,12.80
2022-10-21T04:04:45.952Z,13.57
2022-10-21T04:07:14.387Z,13.07
2022-10-21T04:09:42.359Z,13.60
2022-10-21T04:12:12.350Z,12.37
2022-10-21T04:14:42.363Z,13.60
2022-10-21T04:17:10.971Z,13.17
2022-10-21T04:19:39.100Z,13.10
2022-10-21T04:22:07.642Z,13.23
2022-10-21T04:24:36.272Z,13.93
2022-10-21T04:27:05.008Z,12.60
2022-10-21T04:29:33.208Z,13.03
2022-10-21T04:32:02.919Z,14.30
2022-10-21T04:34:31.250Z,16.13
2022-10-21T04:37:02.522Z,18.30
2022-10-21T04:39:33.718Z,15.40
2022-10-21T04:42:02.104Z,16.70
2022-10-21T04:44:30.282Z,14.60
2022-10-21T04:46:58.644Z,15.23
2022-10-21T04:49:28.246Z,15.23
2022-10-21T04:51:57.017Z,15.63
2022-10-21T04:54:25.367Z,15.70
2022-10-21T04:56:54.017Z,17.07
2022-10-21T04:59:22.186Z,16.53
2022-10-21T05:01:51.168Z,16.33
2022-10-21T05:04:19.537Z,15.30
2022-10-21T05:06:49.270Z,15.33
2022-10-21T05:09:17.722Z,16.20
2022-10-21T05:11:46.136Z,17.57
2022-10-21T05:14:15.754Z,13.63
2022-10-21T05:16:46.054Z,15.13
2022-10-21T05:19:14.503Z,17.00
2022-10-21T05:21:43.108Z,14.87
2022-10-21T05:24:12.698Z,14.87
2022-10-21T05:26:41.283Z,14.83
2022-10-21T05:29:09.721Z,14.17
2022-10-21T05:31:38.411Z,13.73
2022-10-21T05:34:06.692Z,14.40
2022-10-21T05:36:35.603Z,14.73
2022-10-21T05:39:03.997Z,14.67
2022-10-21T05:41:33.811Z,12.93
2022-10-21T05:44:02.074Z,13.83
2022-10-21T05:46:30.615Z,16.50
2022-10-21T05:48:59.133Z,15.97
2022-10-21T05:51:28.630Z,17.33
2022-10-21T05:53:58.249Z,15.17
2022-10-21T05:56:26.676Z,14.47
2022-10-21T05:58:56.287Z,13.27
2022-10-21T06:01:24.799Z,14.20
2022-10-21T06:03:53.222Z,15.93
2022-10-21T06:06:21.624Z,15.27
2022-10-21T06:08:49.928Z,13.80
2022-10-21T06:11:20.615Z,15.23
2022-10-21T06:13:49.330Z,14.87
2022-10-21T06:16:19.147Z,14.10
2022-10-21T06:18:47.426Z,13.33
2022-10-21T06:21:16.228Z,15.53
2022-10-21T06:23:44.588Z,17.50
2022-10-21T06:26:16.097Z,16.27
2022-10-21T06:28:45.518Z,18.57
2022-10-21T06:31:15.993Z,17.37
2022-10-21T06:33:45.698Z,16.00
2022-10-21T06:36:14.822Z,15.40
2022-10-21T06:38:43.292Z,15.50
2022-10-21T06:41:14.563Z,15.87
2022-10-21T06:43:43.591Z,15.83
2022-10-21T06:46:14.480Z,15.30
2022-10-21T06:48:43.082Z,14.07
2022-10-21T06:51:16.026Z,17.10
2022-10-21T06:53:45.406Z,16.80
2022-10-21T06:56:16.699Z,16.53
2022-10-21T06:58:47.888Z,16.27
2022-10-21T07:01:33.864Z,16.10
2022-10-21T07:04:03.761Z,14.93
2022-10-21T07:09:09.223Z,15.57
2022-10-21T07:11:37.780Z,14.60
2022-10-21T07:14:06.155Z,15.47
2022-10-21T07:16:36.784Z,15.70
2022-10-21T07:19:05.325Z,16.00
2022-10-21T07:21:35.367Z,16.97
2022-10-21T07:24:03.722Z,18.13
2022-10-21T07:26:34.803Z,18.70
2022-10-21T07:29:03.407Z,17.47
2022-10-21T07:31:34.536Z,15.23
2022-10-21T07:36:37.786Z,13.70
2022-10-21T07:39:09.356Z,13.73
2022-10-21T07:41:41.528Z,13.30
2022-10-21T07:44:10.259Z,13.97
2022-10-21T07:46:40.001Z,13.70
2022-10-21T07:49:09.117Z,12.77
2022-10-21T07:51:40.341Z,12.67
2022-10-21T07:54:09.788Z,13.33
2022-10-21T07:56:42.025Z,13.80
2022-10-21T07:59:13.167Z,12.70
2022-10-21T08:01:44.629Z,12.20
2022-10-21T08:04:15.430Z,11.67
2022-10-21T08:06:48.368Z,11.93
2022-10-21T08:09:17.477Z,13.73
2022-10-21T08:11:46.235Z,20.03
2022-10-21T08:14:14.926Z,19.03
2022-10-21T08:16:43.506Z,17.00
2022-10-21T08:19:19.002Z,14.83
2022-10-21T08:21:48.898Z,19.13
2022-10-21T08:24:17.270Z,15.90
2022-10-21T08:26:45.721Z,16.10
2022-10-21T08:29:14.120Z,15.13
2022-10-21T08:31:42.632Z,14.97
2022-10-21T08:34:10.979Z,14.93
2022-10-21T08:36:40.142Z,15.30
2022-10-21T08:39:10.288Z,13.87
2022-10-21T08:41:57.756Z,14.50
2022-10-21T08:44:33.862Z,12.90
2022-10-21T08:49:51.473Z,14.07
2022-10-21T08:52:23.151Z,12.83
2022-10-21T08:54:57.496Z,16.57
2022-10-21T08:57:26.268Z,13.23
2022-10-21T08:59:54.837Z,13.73
2022-10-21T09:02:36.910Z,13.63
2022-10-21T09:05:20.644Z,13.77
2022-10-21T09:08:01.965Z,13.03
2022-10-21T09:10:40.346Z,14.53
2022-10-21T09:13:18.039Z,13.60
2022-10-21T09:16:00.376Z,11.77
2022-10-21T09:18:44.250Z,12.37
2022-10-21T09:21:20.939Z,13.03
2022-10-21T09:23:59.280Z,12.77
2022-10-21T09:26:41.508Z,11.87
2022-10-21T09:29:28.492Z,13.47
2022-10-21T09:32:03.324Z,12.30
2022-10-21T09:34:45.241Z,12.20
2022-10-21T09:37:19.648Z,10.93
2022-10-21T09:39:53.634Z,12.83
2022-10-21T09:42:46.334Z,10.57
2022-10-21T09:45:22.157Z,12.00
2022-10-21T09:47:58.852Z,11.30
2022-10-21T09:50:28.222Z,11.70
2022-10-21T09:53:01.738Z,10.80
2022-10-21T09:55:32.694Z,10.90
2022-10-21T09:58:04.015Z,11.03
2022-10-21T10:00:49.990Z,11.30
2022-10-21T10:03:35.567Z,11.30
2022-10-21T10:06:06.321Z,10.53
2022-10-21T10:08:40.381Z,9.87
2022-10-21T10:11:18.238Z,11.13
2022-10-21T10:13:49.767Z,11.20
2022-10-21T10:16:23.428Z,11.33
2022-10-21T10:18:53.466Z,11.00
2022-10-21T10:21:23.399Z,11.63
2022-10-21T10:23:55.995Z,11.40
2022-10-21T10:26:29.886Z,10.93
2022-10-21T10:29:07.403Z,11.97
2022-10-21T10:31:36.955Z,9.83
2022-10-21T10:34:07.893Z,9.73
2022-10-21T10:36:38.672Z,9.97
2022-10-21T10:39:16.263Z,9.43
2022-10-21T10:41:49.135Z,10.70
2022-10-21T10:44:28.190Z,9.63
2022-10-21T10:46:58.874Z,10.03
2022-10-21T10:49:28.930Z,10.03
2022-10-21T10:52:17.875Z,10.37
2022-10-21T10:54:46.113Z,10.13
2022-10-21T10:57:16.922Z,10.50
2022-10-21T10:59:51.385Z,10.90
2022-10-21T11:02:35.171Z,10.17
2022-10-21T11:05:19.410Z,9.98
2022-10-21T11:07:50.775Z,9.30
2022-10-21T11:10:35.273Z,9.35
2022-10-21T11:13:06.531Z,10.25
2022-10-21T11:16:11.514Z,9.43
2022-10-21T11:18:49.354Z,9.30
2022-10-21T11:21:42.816Z,9.00
2022-10-21T11:24:43.180Z,9.13
2022-10-21T11:27:21.528Z,8.88
2022-10-21T11:29:58.457Z,9.25
2022-10-21T11:32:39.531Z,8.57
2022-10-21T11:35:23.861Z,8.95
2022-10-21T11:38:03.903Z,7.75
2022-10-21T11:40:41.085Z,8.90
2022-10-21T11:43:26.485Z,8.48
2022-10-21T11:46:02.717Z,8.02
2022-10-21T11:48:46.605Z,8.27
2022-10-21T11:51:24.097Z,7.97
2022-10-21T11:54:07.682Z,7.65
2022-10-21T11:56:45.977Z,8.23
2022-10-21T11:59:27.561Z,7.65
2022-10-21T12:02:01.816Z,8.55
2022-10-21T12:04:37.710Z,10.30
2022-10-21T12:07:20.449Z,9.40
2022-10-21T12:09:56.360Z,8.57
2022-10-21T12:12:31.353Z,9.95
2022-10-21T12:15:02.516Z,9.50
2022-10-21T12:17:34.695Z,9.20
2022-10-21T12:20:07.336Z,9.88
2022-10-21T12:22:36.770Z,8.20
2022-10-21T12:25:18.606Z,9.73
2022-10-21T12:27:55.346Z,9.68
2022-10-21T12:30:33.429Z,9.73
2022-10-21T12:33:14.468Z,7.97
2022-10-21T12:35:49.996Z,7.60
2022-10-21T12:38:24.492Z,8.35
2022-10-21T12:41:25.811Z,8.63
2022-10-21T12:44:00.202Z,7.65
2022-10-21T12:46:33.734Z,7.63
2022-10-21T12:49:15.359Z,10.07
2022-10-21T12:51:50.641Z,8.57
2022-10-21T12:54:26.559Z,10.05
2022-10-21T12:57:03.572Z,8.20
2022-10-21T12:59:35.429Z,9.88
2022-10-21T13:02:22.376Z,10.20
2022-10-21T13:04:56.887Z,9.10
2022-10-21T13:07:38.900Z,9.50
2022-10-21T13:10:31.596Z,9.52
2022-10-21T13:13:31.717Z,9.27
2022-10-21T13:16:02.407Z,8.73
2022-10-21T13:18:56.473Z,8.73
2022-10-21T13:21:31.165Z,8.82
2022-10-21T13:24:12.896Z,9.02
2022-10-21T13:26:43.101Z,9.38
2022-10-21T13:29:34.056Z,8.43
2022-10-21T13:32:31.337Z,8.90
2022-10-21T13:35:26.611Z,9.23
2022-10-21T13:37:59.297Z,8.90
2022-10-21T13:40:37.213Z,9.48
2022-10-21T13:43:09.704Z,9.07
2022-10-21T13:45:42.339Z,9.63
2022-10-21T13:48:16.002Z,10.93
2022-10-21T13:50:46.213Z,10.18
2022-10-21T13:53:25.519Z,10.35
2022-10-21T13:56:00.758Z,8.25
2022-10-21T13:58:31.374Z,9.65
2022-10-21T14:01:09.078Z,9.65
2022-10-21T14:03:37.688Z,8.65
2022-10-21T14:06:08.776Z,10.43
2022-10-21T14:08:41.841Z,10.25
2022-10-21T14:11:17.173Z,9.00
2022-10-21T14:13:46.950Z,8.63
2022-10-21T14:16:22.286Z,10.30
2022-10-21T14:18:51.251Z,9.95
2022-10-21T14:21:22.446Z,9.85
2022-10-21T14:23:52.165Z,10.50
2022-10-21T14:26:22.572Z,9.38
2022-10-21T14:28:51.771Z,9.82
2022-10-21T14:31:20.526Z,9.88
2022-10-21T14:33:49.805Z,9.20
2022-10-21T14:36:20.633Z,9.38
2022-10-21T14:38:55.716Z,10.52
2022-10-21T14:41:28.564Z,9.77
2022-10-21T14:43:59.956Z,9.68
2022-10-21T14:46:28.648Z,9.88
2022-10-21T14:49:02.591Z,10.25
2022-10-21T14:51:37.883Z,9.75
2022-10-21T14:54:26.492Z,9.73
2022-10-21T14:56:57.960Z,10.32
2022-10-21T14:59:35.286Z,9.80
2022-10-21T15:02:04.923Z,10.38
2022-10-21T15:04:51.557Z,9.63
2022-10-21T15:07:28.830Z,10.40
2022-10-21T15:10:13.696Z,9.93
2022-10-21T15:12:45.615Z,9.20
2022-10-21T15:15:52.542Z,12.90
2022-10-21T15:18:23.856Z,11.98
2022-10-21T15:20:55.778Z,10.98
2022-10-21T15:23:27.440Z,13.25
2022-10-21T15:26:00.619Z,13.82
2022-10-21T15:28:35.178Z,11.95
2022-10-21T15:31:05.432Z,12.32
2022-10-21T15:33:33.690Z,11.77
2022-10-21T15:36:03.817Z,10.93
2022-10-21T15:38:32.214Z,9.27
2022-10-21T15:41:00.624Z,9.63
2022-10-21T15:43:28.912Z,9.77
2022-10-21T15:45:58.756Z,10.38
2022-10-21T15:48:28.085Z,10.43
2022-10-21T15:50:57.844Z,9.13
2022-10-21T15:53:26.160Z,9.95
2022-10-21T15:55:55.115Z,9.48
2022-10-21T15:58:23.326Z,10.63
2022-10-21T16:00:51.771Z,15.15
2022-10-21T16:03:21.534Z,14.70
2022-10-21T16:05:50.377Z,10.85
2022-10-21T16:08:18.634Z,10.45
2022-10-21T16:10:47.933Z,12.48
2022-10-21T16:13:16.560Z,11.00
2022-10-21T16:15:44.939Z,11.68
2022-10-21T16:18:14.696Z,11.07
2022-10-21T16:20:44.707Z,10.82
2022-10-21T16:23:12.903Z,11.00
2022-10-21T16:25:41.284Z,11.45
2022-10-21T16:28:12.210Z,11.40
2022-10-21T16:30:41.890Z,10.90
2022-10-21T16:33:11.165Z,12.55
2022-10-21T16:35:39.656Z,12.13
2022-10-21T16:38:10.300Z,10.88
2022-10-21T16:40:38.719Z,12.30
2022-10-21T16:43:07.482Z,11.02
2022-10-21T16:45:36.445Z,13.52
2022-10-21T16:48:05.809Z,13.23
2022-10-21T16:50:39.653Z,12.48
2022-10-21T16:53:14.640Z,18.65
2022-10-21T16:55:43.415Z,13.77
2022-10-21T16:58:11.668Z,13.45
2022-10-21T17:00:41.289Z,12.35
2022-10-21T17:03:12.140Z,12.70
2022-10-21T17:05:40.828Z,14.18
2022-10-21T17:08:10.527Z,12.02
2022-10-21T17:10:38.978Z,12.98
2022-10-21T17:13:07.373Z,12.52
2022-10-21T17:15:35.937Z,12.73
2022-10-21T17:18:04.511Z,12.93
2022-10-21T17:20:33.612Z,12.90
2022-10-21T17:23:02.503Z,12.30
2022-10-21T17:25:32.577Z,12.73
2022-10-21T17:28:01.120Z,13.82
2022-10-21T17:30:29.899Z,15.05
2022-10-21T17:32:58.957Z,18.30
2022-10-21T17:35:27.596Z,22.15
2022-10-21T17:37:56.139Z,15.27
2022-10-21T17:40:27.085Z,16.10
2022-10-21T17:42:58.374Z,14.27
2022-10-21T17:45:27.160Z,13.85
2022-10-21T17:47:55.520Z,14.65
2022-10-21T17:50:26.771Z,14.15
2022-10-21T17:52:56.231Z,13.82
2022-10-21T17:55:24.916Z,14.32
2022-10-21T17:57:53.401Z,13.32
2022-10-21T18:00:23.847Z,13.65
2022-10-21T18:02:52.467Z,15.77
2022-10-21T18:05:21.400Z,15.18
2022-10-21T18:07:51.065Z,16.10
2022-10-21T18:10:20.531Z,14.13
2022-10-21T18:12:50.006Z,15.20
2022-10-21T18:15:20.282Z,15.98
2022-10-21T18:17:51.038Z,17.73
2022-10-21T18:20:20.745Z,18.85
2022-10-21T18:22:49.868Z,17.92
2022-10-21T18:25:18.758Z,16.70
2022-10-21T18:27:47.958Z,15.23
2022-10-21T18:30:17.427Z,16.42
2022-10-21T18:32:46.326Z,16.05
2022-10-21T18:35:17.790Z,15.35
2022-10-21T18:37:47.048Z,16.65
2022-10-21T18:40:16.715Z,15.27
2022-10-21T18:42:45.906Z,15.52
2022-10-21T18:45:15.721Z,16.15
2022-10-21T18:47:47.476Z,15.63
2022-10-21T18:50:19.158Z,16.02
2022-10-21T18:52:48.115Z,15.05
2022-10-21T18:55:18.046Z,15.43
2022-10-21T18:57:47.387Z,16.10
2022-10-21T19:00:16.905Z,16.80
2022-10-21T19:02:46.112Z,15.98
2022-10-21T19:05:15.822Z,15.88
2022-10-21T19:07:47.089Z,15.57
2022-10-21T19:10:16.716Z,16.02
2022-10-21T19:12:46.103Z,14.35
2022-10-21T19:15:15.973Z,15.23
2022-10-21T19:17:45.523Z,16.15
2022-10-21T19:20:15.909Z,15.20
2022-10-21T19:22:47.953Z,15.93
2022-10-21T19:25:17.836Z,14.35
2022-10-21T19:27:47.439Z,15.15
2022-10-21T19:30:16.763Z,15.13
2022-10-21T19:32:45.781Z,15.60
2022-10-21T19:35:14.925Z,14.63
2022-10-21T19:37:45.228Z,15.30
2022-10-21T19:40:14.950Z,14.93
2022-10-21T19:42:44.698Z,15.50
2022-10-21T19:45:17.100Z,13.82
2022-10-21T19:47:47.025Z,13.63
2022-10-21T19:50:16.322Z,14.52
2022-10-21T19:52:46.967Z,13.23
2022-10-21T19:55:19.086Z,13.73
2022-10-21T19:57:48.281Z,13.48
2022-10-21T20:00:17.861Z,13.77
2022-10-21T20:02:47.080Z,14.20
2022-10-21T20:05:15.768Z,13.48
2022-10-21T20:07:46.219Z,13.80
2022-10-21T20:10:15.700Z,15.00
2022-10-21T20:12:43.931Z,13.02
2022-10-21T20:15:12.996Z,12.90
2022-10-21T20:17:41.595Z,13.77
2022-10-21T20:20:10.483Z,13.90
2022-10-21T20:22:39.151Z,13.02
2022-10-21T20:25:10.251Z,12.98
2022-10-21T20:27:38.776Z,13.63
2022-10-21T20:30:08.619Z,13.82
2022-10-21T20:32:36.947Z,14.02
2022-10-21T20:35:06.558Z,13.18
2022-10-21T20:37:39.671Z,12.98
2022-10-21T20:40:10.653Z,13.82
2022-10-21T20:42:38.982Z,14.70
2022-10-21T20:45:08.379Z,13.57
2022-10-21T20:47:36.684Z,13.10
2022-10-21T20:50:06.560Z,12.77
2022-10-21T20:52:34.823Z,14.93
2022-10-21T20:55:03.213Z,13.98
2022-10-21T20:57:33.288Z,13.50
2022-10-21T21:00:01.739Z,13.65
2022-10-21T21:02:30.307Z,15.50
2022-10-21T21:04:58.740Z,12.98
2022-10-21T21:07:27.072Z,13.30
2022-10-21T21:10:02.760Z,12.63
2022-10-21T21:12:33.357Z,14.15
2022-10-21T21:15:02.086Z,13.18
2022-10-21T21:17:30.334Z,14.23
2022-10-21T21:19:58.945Z,13.48
2022-10-21T21:22:27.267Z,14.00
2022-10-21T21:24:55.815Z,14.18
2022-10-21T21:27:24.001Z,13.25
2022-10-21T21:29:53.918Z,14.00
2022-10-21T21:32:22.162Z,14.20
2022-10-21T21:34:55.215Z,15.65
2022-10-21T21:37:24.217Z,11.82
2022-10-21T21:39:52.960Z,12.40
2022-10-21T21:42:21.556Z,13.82
2022-10-21T21:44:49.941Z,11.32
2022-10-21T21:47:19.827Z,12.50
2022-10-21T21:49:48.617Z,11.90
2022-10-21T21:52:16.808Z,10.82
2022-10-21T21:54:45.221Z,11.02
2022-10-21T21:57:27.372Z,11.18
2022-10-21T21:59:56.702Z,10.07
2022-10-21T22:02:26.312Z,10.45
2022-10-21T22:04:54.674Z,9.75
2022-10-21T22:07:22.993Z,9.70
2022-10-21T22:09:51.488Z,9.85
2022-10-21T22:12:22.948Z,10.77
2022-10-21T22:14:51.733Z,10.48
2022-10-21T22:17:20.019Z,12.13
2022-10-21T22:19:53.669Z,11.20
2022-10-21T22:22:22.442Z,10.15
2022-10-21T22:24:50.863Z,11.25
2022-10-21T22:27:19.035Z,10.27
2022-10-21T22:29:47.499Z,10.88
2022-10-21T22:32:17.491Z,10.35
2022-10-21T22:34:46.413Z,10.13
2022-10-21T22:37:16.237Z,10.05
2022-10-21T22:39:44.642Z,10.18
2022-10-21T22:42:12.799Z,11.25
2022-10-21T22:44:41.488Z,10.38
2022-10-21T22:47:09.688Z,9.75
2022-10-21T22:49:38.165Z,11.57
2022-10-21T22:52:06.462Z,10.88
2022-10-21T22:54:48.984Z,9.73
2022-10-21T22:57:17.993Z,11.25
2022-10-21T22:59:50.629Z,11.30
2022-10-21T23:02:21.317Z,12.57
2022-10-21T23:04:49.789Z,11.90
2022-10-21T23:07:17.956Z,11.23
2022-10-21T23:09:47.805Z,12.45
2022-10-21T23:12:16.054Z,12.07
2022-10-21T23:14:44.784Z,13.23
2022-10-21T23:17:13.048Z,12.02
2022-10-21T23:19:41.403Z,10.85
2022-10-21T23:22:10.970Z,10.82
2022-10-21T23:24:39.336Z,12.10
2022-10-21T23:27:09.107Z,11.95
2022-10-21T23:29:37.977Z,11.43
2022-10-21T23:32:06.485Z,11.65
2022-10-21T23:34:34.953Z,12.50
2022-10-21T23:37:03.130Z,11.18
2022-10-21T23:39:31.883Z,11.07
2022-10-21T23:42:00.063Z,12.25
2022-10-21T23:44:29.904Z,12.27
2022-10-21T23:46:58.315Z,12.25
2022-10-21T23:49:26.883Z,14.02
2022-10-21T23:51:55.337Z,13.30
2022-10-21T23:54:23.816Z,13.60
2022-10-21T23:56:52.048Z,15.30
2022-10-21T23:59:22.054Z,13.80
